Lake Hiawatha, New Jersey
Current Conditions -  °F | °C
As of 4:53 PM on Saturday 25 Oct 2014 (Local Time) from KCDW Reporting Station
Clear Clear  
Wind Chill: 67°   Ceiling: Unl
Heat Index: 67°   Visibility: 10mi
Dew Point: 42°   Wind: 9mph
Humidity: 40%   Direction: 230°SW
Pressure: 29.66"   Gusts: NA
Location:  40.88°N, 74.38°W
Report Text: KCDW 252053Z 23008KT 10SM CLR 19/06 A2966 RMK AO2 SLP049 T01940056 56024
Loading
Personal Weather Stations






























Interactive Weather Map
Tropical Storm Tracking
New forecast layout! Learn more

10-Day Weather Forecast

Advertisements
Track Severe Weather on mobile